• Join FlightAware (Why Join?)
  • Login
  • US Flag 
01:44PM EDT


 

Airport Tracker/Info


-or-


 

Live Flight TrackerFlight Track Log ✈ SWA3313 ✈ 24-Apr-2013 ✈ KMHT - KBWI

Flight Track Log - Related Links

Times and Time Zones

All times are in EDT time to prevent confusion due to time zone crossing. See the SWA3313 flight status page for this flight to view local times or setup timezone preferences in your user account.

Time Position Orientation Groundspeed Altitude Reporting Facility
EDT Latitude Longitude Course Direction KTS MPH feet Rate Location/Type
06:47PM 42.9167 -71.4167 216° Southwest 149 171 1,100  Level KA90
06:48PM 42.9000 -71.4333 216° Southwest 152 175 1,900 2,580 Climbing KA90
06:49PM 42.8500 -71.4333 180° South 209 241 4,500 2,700 Climbing KA90
06:51PM 42.9425 -71.2744 51° Northeast 286 329 10,300 2,760 Climbing Boston Center
06:52PM 43.0186 -71.1708 45° Northeast 335 386 13,200 2,880 Climbing Boston Center
06:53PM 43.0694 -71.0561 59° Northeast 391 450 16,100 3,000 Climbing Boston Center
06:54PM 43.0217 -70.9236 116° Southeast 344 396 19,300 3,060 Climbing Boston Center
06:55PM 42.9197 -70.9206 179° South 274 315 22,300 2,640 Climbing Boston Center
06:56PM 42.8161 -70.9656 198° South 305 351 24,600 1,980 Climbing Boston Center
06:57PM 42.7189 -71.0383 209° Southwest 352 405 26,300 2,100 Climbing Boston Center
06:58PM 42.6600 -71.1697 239° Southwest 373 429 28,800 1,800 Climbing Boston Center
06:59PM 42.6031 -71.2950 238° Southwest 386 444 30,000 600 Climbing Boston Center
07:00PM 42.5439 -71.4228 238° Southwest 396 456 30,000  Level Boston Center
07:01PM 42.4864 -71.5475 238° Southwest 396 456 30,000  Level Boston Center
07:02PM 42.4250 -71.6694 236° Southwest 396 456 30,000  Level Boston Center
07:03PM 42.3672 -71.7911 237° Southwest 396 456 30,000  Level Boston Center
07:04PM 42.3094 -71.9150 238° Southwest 391 450 30,000  Level Boston Center
07:05PM 42.2517 -72.0361 237° Southwest 391 450 30,000  Level Boston Center
07:06PM 42.1833 -72.1514 231° Southwest 396 456 30,000  Level Boston Center
07:07PM 42.1147 -72.2639 231° Southwest 396 456 30,000  Level Boston Center
07:08PM 42.0461 -72.3731 230° Southwest 396 456 30,000  Level Boston Center
07:09PM 41.9753 -72.4847 230° Southwest 396 456 30,000  Level Boston Center
07:10PM 41.9064 -72.5964 230° Southwest 396 456 30,000  Level Boston Center
07:11PM 41.8394 -72.7047 230° Southwest 396 456 30,000  Level Boston Center
07:12PM 41.7683 -72.8186 230° Southwest 396 456 30,000  Level Boston Center
07:13PM 41.7117 -72.9044 229° Southwest 396 456 30,000  Level Boston Center
07:14PM 41.6278 -73.0400 230° Southwest 401 461 30,000  Level Boston Center
07:15PM 41.5478 -73.1667 230° Southwest 407 468 30,000  Level Boston Center
07:17PM 41.3817 -73.4283 230° Southwest 401 461 30,000  Level New York Center
07:18PM 41.3083 -73.5414 229° Southwest 411 473 30,000  Level New York Center
07:19PM 41.2367 -73.6600 231° Southwest 411 473 30,000  Level New York Center
07:20PM 41.1669 -73.7781 232° Southwest 411 473 30,000  Level New York Center
07:21PM 41.0972 -73.8961 232° Southwest 411 473 30,000  Level New York Center
07:22PM 41.0275 -74.0111 231° Southwest 411 473 30,000  Level New York Center
07:23PM 40.9575 -74.1314 232° Southwest 411 473 30,000 -360 Level New York Center
07:24PM 40.8856 -74.2403 229° Southwest 411 473 29,300 -900 Descending New York Center
07:25PM 40.8178 -74.3494 231° Southwest 406 467 28,200 -660 Descending New York Center
07:26PM 40.7539 -74.4639 234° Southwest 398 458 28,000 -120 Descending New York Center
07:27PM 40.6881 -74.5697 231° Southwest 387 445 28,000  Level New York Center
07:28PM 40.6197 -74.6808 231° Southwest 392 451 28,000  Level New York Center
07:29PM 40.5472 -74.7914 229° Southwest 397 457 28,000 -60 Level New York Center
07:30PM 40.4728 -74.8989 228° Southwest 397 457 27,900 -900 Descending New York Center
07:31PM 40.3981 -75.0061 228° Southwest 397 457 26,300 -2,040 Descending New York Center
07:32PM 40.3233 -75.1103 227° Southwest 397 457 23,800 -2,580 Descending New York Center
07:33PM 40.2531 -75.2094 227° Southwest 397 457 21,200 -2,400 Descending New York Center
07:34PM 40.1761 -75.3131 226° Southwest 377 434 19,000 -1,140 Descending New York Center
07:35PM 40.1189 -75.3908 226° Southwest 360 414 19,000 -360 Level New York Center
07:36PM 40.0503 -75.4892 228° Southwest 343 395 18,300 -900 Descending New York Center
07:37PM 39.9931 -75.5694 227° Southwest 343 395 17,300 -660 Descending New York Center
07:38PM 39.9267 -75.6597 226° Southwest 332 382 17,000 -180 Descending New York Center
07:39PM 39.8794 -75.7456 234° Southwest 332 382 17,000 -240 Level New York Center
07:40PM 39.8250 -75.8472 235° Southwest 322 371 16,600 -1,500 Descending New York Center
07:42PM 39.7167 -76.0333 233° Southwest 293 337 12,600 -1,860 Descending Potomac TRACON
07:43PM 39.6833 -76.1333 247° West 287 330 10,700 -1,380 Descending Potomac TRACON
07:44PM 39.6333 -76.2000 226° Southwest 247 284 9,900 -1,500 Descending Potomac TRACON
07:45PM 39.6000 -76.2833 243° Southwest 253 291 7,700 -1,440 Descending Potomac TRACON
07:46PM 39.5500 -76.3333 218° Southwest 244 281 7,000 -420 Descending Potomac TRACON
07:47PM 39.5333 -76.4167 255° West 238 274 7,000  Level Potomac TRACON
07:48PM 39.5167 -76.5000 255° West 239 275 7,000 -480 Level Potomac TRACON
07:49PM 39.4833 -76.5833 243° Southwest 246 283 6,100 -1,200 Descending Potomac TRACON
07:50PM 39.4500 -76.6333 229° Southwest 235 270 4,800 -1,080 Descending Potomac TRACON
07:51PM 39.4167 -76.7167 243° Southwest 233 268 4,000 -420 Descending Potomac TRACON
07:52PM 39.3833 -76.8000 243° Southwest 236 272 4,000 -540 Level Potomac TRACON
07:53PM 39.3500 -76.8667 237° Southwest 237 273 3,000 -540 Descending Potomac TRACON
07:54PM 39.3167 -76.9333 237° Southwest 215 247 3,000  Level Potomac TRACON
07:55PM 39.2833 -76.9667 218° Southwest 205 236 3,000 -180 Level Potomac TRACON
07:56PM 39.2500 -76.9167 131° Southeast 183 211 2,700 -600 Descending Potomac TRACON
07:57PM 39.2167 -76.8667 131° Southeast 177 204 1,800 -600 Descending Potomac TRACON
07:58PM 39.1833 -76.8167 131° Southeast 173 199 1,500 -300 Descending Potomac TRACON
07:59PM 39.1833 -76.7667 90° East 178 205 1,200 -540 Descending Potomac TRACON
08:00PM 39.1833 -76.7000 90° East 145 167 500 -720 Descending Potomac TRACON
08:02PM 39.1754 -76.6683 218° Southwest  Level Estimated
08:09PM 39.1754 -76.6683 270° West  Level Estimated
08:10PM 39.1754 -76.6683 270° West  Level Estimated
08:11PM 39.1754 -76.6683 270° West  Level Estimated
08:12PM 39.1754 -76.6683 270° West  Level Estimated